Pleasanton, CA

7:51 AM PDT on August 30, 2015 (GMT -0700)
Pleasanton Downtown | | Change Station
CLOSE
Current Station
Personal Weather Station
Location: Pleasanton, CA
Elevation: 384 ft
Nearby Weather Stations

Elev 384 ft 37.66 °N, 121.87 °W | Updated 23 seconds ago

Partly Cloudy
Partly Cloudy
65.0 °F
Feels Like 65.0 °F
N
1.0
Wind Variable Wind from NNW
Gusts 1.0 mph

Today
High -- | Low -- °F
--% Chance of Precip.
Yesterday
High -- | Low -- °F
Precip. -- in
6:35 AM 7:39 PM
Full, 99% visible
Pressure 30.01 in
Visibility 10.0 miles
Clouds Scattered Clouds 1800 ft
Dew Point 59 °F
Humidity 81%
Rainfall 0.00 in
Snow Depth Not available.
UV 0 out of 12
Pollen 6.40 out of 12
Air Quality Not available.
Flu Activity Not available.
METAR KLVK 301353Z 20003KT 10SM SCT018 18/13 A3002 RMK AO2 SLP163 T01830133
Pressure 30.01 in
Visibility 10.0 miles
Clouds Scattered Clouds 1800 ft
Dew Point 59 °F
Humidity 81%
Rainfall 0.00 in
Snow Depth Not available.
UV 0 out of 12
Pollen 6.40 out of 12
Air Quality Not available.
Flu Activity Not available.
METAR KLVK 301353Z 20003KT 10SM SCT018 18/13 A3002 RMK AO2 SLP163 T01830133

10-Day Weather Forecast

×

Almanac

Astronomy

Aug. 30, 2015 Rise Set
Actual Time
Civil Twilight
Nautical Twilight
Astronomical Twilight
Moon
Length of Visible Light
Length of Day
Tomorrow will be .
, % of the Moon is Illuminated

Today's Extremes

State Highs State Lows

Community

WunderPhotos

Upload Photos

1,850,974 photos uploaded!

WunderBlogs® & News

Nearby

Air Quality

  Air Quality AQ Index Pollutant
Not available.

Snow Depth

Station Depth Elevation

Earthquake Activity

City Distance Mag. Time & Date
Minimum magnitude displayed is 2.5.

Coastal Water Temperatures

Place Temperature

Stations

Nearby Weather Stations

Station Location Temp. Windchill Dew Point Humidity Wind Precip. Elev Updated Type